Time;durP1;ratioP1;P1;durP2;ratioP2;P2;SDS_P1;SDS_P2;PMS_P1;PMS_P2;Temp;Humidity;BMP_temperature;BMP_pressure;BME280_temperature;BME280_humidity;BME280_pressure;Samples;Min_cycle;Max_cycle;Signal;HPM_P1;HPM_P2
2021/06/27 00:02:23;;;;;;;11.85;8.02;;;;;;;;;;4986359;28;20869;-89
2021/06/27 00:04:50;;;;;;;11.25;8.15;;;;;;;;;;4984538;28;20420;-89
2021/06/27 00:07:17;;;;;;;11.45;8.13;;;;;;;;;;4971187;28;20406;-90
2021/06/27 00:09:45;;;;;;;11.65;8.60;;;;;;;;;;4973042;28;20397;-89
2021/06/27 00:12:12;;;;;;;10.07;8.15;;;;;;;;;;4974620;28;20424;-89
2021/06/27 00:14:40;;;;;;;10.47;8.60;;;;;;;;;;4972288;28;20414;-88
2021/06/27 00:17:07;;;;;;;12.02;8.60;;;;;;;;;;4972615;28;20416;-89
2021/06/27 00:19:34;;;;;;;9.68;8.02;;;;;;;;;;4972804;28;20417;-88
2021/06/27 00:22:02;;;;;;;11.93;8.05;;;;;;;;;;4974235;28;20763;-88
2021/06/27 00:24:29;;;;;;;8.38;7.47;;;;;;;;;;4973702;28;20913;-89
2021/06/27 00:26:56;;;;;;;11.45;8.30;;;;;;;;;;4971905;28;20770;-89
2021/06/27 00:29:23;;;;;;;8.35;7.30;;;;;;;;;;4971168;28;20421;-89
2021/06/27 00:31:52;;;;;;;10.10;7.72;;;;;;;;;;4972387;28;20426;-88
2021/06/27 00:34:18;;;;;;;11.07;7.38;;;;;;;;;;4973155;28;20411;-89
2021/06/27 00:36:45;;;;;;;11.63;7.15;;;;;;;;;;4967941;28;20424;-89
2021/06/27 00:39:12;;;;;;;8.55;6.95;;;;;;;;;;4969818;28;20795;-88
2021/06/27 00:41:39;;;;;;;11.30;6.97;;;;;;;;;;4972503;28;20408;-89
2021/06/27 00:44:06;;;;;;;10.48;7.55;;;;;;;;;;4969150;28;20409;-89
2021/06/27 00:46:33;;;;;;;10.38;7.70;;;;;;;;;;4970253;28;20404;-88
2021/06/27 00:49:02;;;;;;;13.10;8.10;;;;;;;;;;4969169;28;20485;-89
2021/06/27 00:51:29;;;;;;;10.63;8.20;;;;;;;;;;4970364;28;20422;-88
2021/06/27 00:53:56;;;;;;;8.90;8.00;;;;;;;;;;4974239;28;21169;-89
2021/06/27 00:56:22;;;;;;;9.65;8.07;;;;;;;;;;4985655;28;20417;-88
2021/06/27 00:58:50;;;;;;;13.25;8.05;;;;;;;;;;4985088;28;20420;-89
2021/06/27 01:01:17;;;;;;;10.70;7.82;;;;;;;;;;4985103;28;20420;-89
2021/06/27 01:03:44;;;;;;;10.32;7.22;;;;;;;;;;4986275;28;20414;-88
2021/06/27 01:06:12;;;;;;;10.07;8.07;;;;;;;;;;4982658;28;20404;-89
2021/06/27 01:08:39;;;;;;;9.73;8.40;;;;;;;;;;4986372;28;20438;-89
2021/06/27 01:11:06;;;;;;;9.17;7.93;;;;;;;;;;4985052;28;20444;-89
2021/06/27 01:13:35;;;;;;;11.90;8.65;;;;;;;;;;4988018;28;20423;-89
2021/06/27 01:16:02;;;;;;;9.32;8.18;;;;;;;;;;4985465;28;20401;-89
2021/06/27 01:18:29;;;;;;;10.57;7.88;;;;;;;;;;4985189;28;20415;-89
2021/06/27 01:20:56;;;;;;;8.50;7.60;;;;;;;;;;4984606;28;20416;-89
2021/06/27 01:23:24;;;;;;;10.38;8.60;;;;;;;;;;4984392;28;20888;-89
2021/06/27 01:25:54;;;;;;;10.40;8.50;;;;;;;;;;4981682;28;20404;-90
2021/06/27 01:28:22;;;;;;;9.48;8.48;;;;;;;;;;4984131;28;20405;-89
2021/06/27 01:30:49;;;;;;;9.05;7.50;;;;;;;;;;4984190;28;20443;-89
2021/06/27 01:33:18;;;;;;;8.35;7.47;;;;;;;;;;4983693;28;20950;-88
2021/06/27 01:35:46;;;;;;;12.37;7.70;;;;;;;;;;4984535;28;20571;-89
2021/06/27 01:38:15;;;;;;;7.95;7.18;;;;;;;;;;4981773;28;20413;-89
2021/06/27 01:40:44;;;;;;;10.55;7.32;;;;;;;;;;4983529;28;20547;-90
2021/06/27 01:43:14;;;;;;;9.18;7.70;;;;;;;;;;4985031;28;20402;-88
2021/06/27 01:45:46;;;;;;;9.45;7.63;;;;;;;;;;4978225;28;20899;-88
2021/06/27 01:48:14;;;;;;;7.70;6.90;;;;;;;;;;4995576;28;20406;-89
2021/06/27 01:50:43;;;;;;;9.90;7.30;;;;;;;;;;4984828;28;20415;-89
2021/06/27 01:53:12;;;;;;;8.80;7.32;;;;;;;;;;4993228;28;20418;-89
2021/06/27 01:55:39;;;;;;;10.30;7.30;;;;;;;;;;4988835;28;20414;-89
2021/06/27 01:58:08;;;;;;;8.65;7.32;;;;;;;;;;4993410;28;20411;-89
2021/06/27 02:00:36;;;;;;;7.50;6.63;;;;;;;;;;4988460;28;20897;-89
2021/06/27 02:03:03;;;;;;;7.93;6.97;;;;;;;;;;4973518;28;20406;-89
2021/06/27 02:05:32;;;;;;;8.00;7.03;;;;;;;;;;4973604;28;20414;-89
2021/06/27 02:07:59;;;;;;;8.38;7.20;;;;;;;;;;4974189;28;20414;-89
2021/06/27 02:10:28;;;;;;;8.15;7.35;;;;;;;;;;4971713;28;20427;-89
2021/06/27 02:12:56;;;;;;;8.75;7.80;;;;;;;;;;4975305;28;20423;-89
2021/06/27 02:15:24;;;;;;;10.98;7.90;;;;;;;;;;4977133;28;20413;-89
2021/06/27 02:17:54;;;;;;;8.80;7.90;;;;;;;;;;4975713;28;20402;-89
2021/06/27 02:20:24;;;;;;;10.15;8.25;;;;;;;;;;4972991;28;20460;-89
2021/06/27 02:22:51;;;;;;;9.67;8.23;;;;;;;;;;4976287;28;20492;-89
2021/06/27 02:25:18;;;;;;;9.63;8.63;;;;;;;;;;4970573;28;20877;-88
2021/06/27 02:27:45;;;;;;;10.73;7.90;;;;;;;;;;4968867;28;20419;-88
2021/06/27 02:30:14;;;;;;;9.32;8.35;;;;;;;;;;4973846;28;20416;-89
2021/06/27 02:32:42;;;;;;;10.53;8.07;;;;;;;;;;4971339;28;20418;-89
2021/06/27 02:35:11;;;;;;;8.07;7.35;;;;;;;;;;4973118;28;20782;-89
2021/06/27 02:37:39;;;;;;;9.20;7.73;;;;;;;;;;4973492;28;20566;-88
2021/06/27 02:40:09;;;;;;;9.68;7.78;;;;;;;;;;4972354;28;20435;-89
2021/06/27 02:42:36;;;;;;;9.55;7.55;;;;;;;;;;4973140;28;20405;-88
2021/06/27 02:45:03;;;;;;;11.68;7.25;;;;;;;;;;4972868;28;20408;-89
2021/06/27 02:47:30;;;;;;;9.50;7.75;;;;;;;;;;4972542;28;20414;-88
2021/06/27 02:49:59;;;;;;;9.50;7.32;;;;;;;;;;4972410;28;20415;-89
2021/06/27 02:52:26;;;;;;;9.32;7.18;;;;;;;;;;4973586;28;20421;-88
2021/06/27 02:54:53;;;;;;;7.95;7.28;;;;;;;;;;4973049;28;20404;-88
2021/06/27 02:57:19;;;;;;;10.10;7.50;;;;;;;;;;4972682;28;20851;-88
2021/06/27 02:59:46;;;;;;;10.85;7.38;;;;;;;;;;4976375;28;20420;-89
2021/06/27 03:02:13;;;;;;;8.38;7.10;;;;;;;;;;4976158;28;20887;-88
2021/06/27 03:04:40;;;;;;;7.97;7.15;;;;;;;;;;4974772;28;20899;-89
2021/06/27 03:07:09;;;;;;;8.45;7.30;;;;;;;;;;4977284;28;20406;-88
2021/06/27 03:09:36;;;;;;;9.67;6.80;;;;;;;;;;4974339;28;20491;-88
2021/06/27 03:12:03;;;;;;;7.00;6.30;;;;;;;;;;4976312;28;20744;-88
2021/06/27 03:14:30;;;;;;;7.30;6.15;;;;;;;;;;4975634;28;20405;-88
2021/06/27 03:16:57;;;;;;;6.85;5.95;;;;;;;;;;4976311;28;20412;-88
2021/06/27 03:19:23;;;;;;;8.13;6.38;;;;;;;;;;4976948;28;20411;-89
2021/06/27 03:21:50;;;;;;;6.55;5.85;;;;;;;;;;4976418;28;20402;-89
2021/06/27 03:24:19;;;;;;;7.18;5.25;;;;;;;;;;4978510;28;20420;-88
2021/06/27 03:26:46;;;;;;;7.40;5.67;;;;;;;;;;4975540;28;20469;-88
2021/06/27 03:29:13;;;;;;;6.97;5.30;;;;;;;;;;4978476;28;20411;-88
2021/06/27 03:31:40;;;;;;;6.23;5.23;;;;;;;;;;4975007;28;20406;-89
2021/06/27 03:34:07;;;;;;;5.97;5.00;;;;;;;;;;4978432;28;20515;-89
2021/06/27 03:36:34;;;;;;;6.60;5.43;;;;;;;;;;4975720;28;20408;-89
2021/06/27 03:39:05;;;;;;;5.45;4.72;;;;;;;;;;4978032;28;20413;-88
2021/06/27 03:41:37;;;;;;;5.30;4.80;;;;;;;;;;4975791;28;20428;-88
2021/06/27 03:44:05;;;;;;;5.35;4.85;;;;;;;;;;4978249;28;21580;-89
2021/06/27 03:46:32;;;;;;;7.43;4.93;;;;;;;;;;4975851;28;20412;-89
2021/06/27 03:48:59;;;;;;;6.85;5.25;;;;;;;;;;4976908;28;20495;-88
2021/06/27 03:51:26;;;;;;;6.00;5.00;;;;;;;;;;4976286;28;20417;-89
2021/06/27 03:53:53;;;;;;;6.25;4.80;;;;;;;;;;4975774;28;20422;-89
2021/06/27 03:56:21;;;;;;;4.90;4.50;;;;;;;;;;4977714;28;20429;-89
2021/06/27 03:58:49;;;;;;;8.05;4.30;;;;;;;;;;4974986;28;20421;-88
2021/06/27 04:01:17;;;;;;;6.93;4.32;;;;;;;;;;4977722;28;20437;-88
2021/06/27 04:03:45;;;;;;;5.65;3.90;;;;;;;;;;4974236;28;20428;-89
2021/06/27 04:06:12;;;;;;;5.07;4.25;;;;;;;;;;4975673;28;20421;-89
2021/06/27 04:08:39;;;;;;;4.80;3.88;;;;;;;;;;4995255;28;20760;-88
2021/06/27 04:11:06;;;;;;;4.53;3.53;;;;;;;;;;4998883;28;20464;-88
2021/06/27 04:13:35;;;;;;;4.80;3.73;;;;;;;;;;4999367;28;20399;-88
2021/06/27 04:16:05;;;;;;;5.25;3.85;;;;;;;;;;4999647;28;20844;-88
2021/06/27 04:18:34;;;;;;;4.65;3.65;;;;;;;;;;4995058;28;20403;-88
2021/06/27 04:21:01;;;;;;;3.80;3.40;;;;;;;;;;4999275;28;20431;-88
2021/06/27 04:23:29;;;;;;;5.43;3.40;;;;;;;;;;4999275;28;20405;-89
2021/06/27 04:25:56;;;;;;;5.20;3.50;;;;;;;;;;4999397;28;20417;-88
2021/06/27 04:28:23;;;;;;;5.32;3.28;;;;;;;;;;4999156;28;20405;-88
2021/06/27 04:30:50;;;;;;;5.65;3.33;;;;;;;;;;4999929;28;20446;-89
2021/06/27 04:33:18;;;;;;;4.77;3.27;;;;;;;;;;5000110;28;20437;-88
2021/06/27 04:35:46;;;;;;;3.80;2.90;;;;;;;;;;4999250;28;20414;-89
2021/06/27 04:38:16;;;;;;;3.70;3.08;;;;;;;;;;4998845;28;20404;-88
2021/06/27 04:40:43;;;;;;;4.18;3.33;;;;;;;;;;4997670;28;20864;-89
2021/06/27 04:43:10;;;;;;;4.55;2.85;;;;;;;;;;4997160;28;20747;-88
2021/06/27 04:45:40;;;;;;;5.53;2.97;;;;;;;;;;4997794;28;20436;-89
2021/06/27 04:48:07;;;;;;;4.13;3.27;;;;;;;;;;4998739;28;20809;-87
2021/06/27 04:50:36;;;;;;;5.57;3.20;;;;;;;;;;4986082;28;21343;-88
2021/06/27 04:53:03;;;;;;;5.10;3.22;;;;;;;;;;4979235;28;20401;-88
2021/06/27 04:55:30;;;;;;;4.53;3.38;;;;;;;;;;4979551;28;20426;-89
2021/06/27 04:57:57;;;;;;;5.80;3.45;;;;;;;;;;4979219;28;20413;-89
2021/06/27 05:00:24;;;;;;;4.90;3.22;;;;;;;;;;4979172;28;20428;-89
2021/06/27 05:02:51;;;;;;;3.87;3.20;;;;;;;;;;4991012;28;20476;-89
2021/06/27 05:05:18;;;;;;;4.70;3.50;;;;;;;;;;4999323;28;20407;-88
2021/06/27 05:07:46;;;;;;;5.30;3.80;;;;;;;;;;4998717;28;20417;-88
2021/06/27 05:10:13;;;;;;;4.88;4.00;;;;;;;;;;4981038;28;20414;-88
2021/06/27 05:12:40;;;;;;;6.30;4.30;;;;;;;;;;4978727;28;20415;-88
2021/06/27 05:15:08;;;;;;;5.15;4.10;;;;;;;;;;4978901;28;20414;-89
2021/06/27 05:17:35;;;;;;;6.05;4.22;;;;;;;;;;4978372;28;20407;-88
2021/06/27 05:20:03;;;;;;;4.40;3.00;;;;;;;;;;4978372;28;20409;-89
2021/06/27 05:22:30;;;;;;;4.45;3.05;;;;;;;;;;4978753;28;20401;-88
2021/06/27 05:24:59;;;;;;;4.82;2.80;;;;;;;;;;4978215;28;20408;-88
2021/06/27 05:27:26;;;;;;;4.60;3.38;;;;;;;;;;4978423;28;20507;-88
2021/06/27 05:29:52;;;;;;;4.72;3.17;;;;;;;;;;4978629;28;20529;-89
2021/06/27 05:32:19;;;;;;;3.22;2.90;;;;;;;;;;4991726;28;20413;-89
2021/06/27 05:34:46;;;;;;;5.00;3.10;;;;;;;;;;4997860;28;20413;-89
2021/06/27 05:37:13;;;;;;;5.85;3.70;;;;;;;;;;4992567;28;20405;-88
2021/06/27 05:39:40;;;;;;;8.82;4.30;;;;;;;;;;4996936;28;20405;-88
2021/06/27 05:42:09;;;;;;;6.07;4.15;;;;;;;;;;4997630;28;20425;-88
2021/06/27 05:44:36;;;;;;;7.30;5.57;;;;;;;;;;4996850;28;20409;-89
2021/06/27 05:47:03;;;;;;;8.30;6.05;;;;;;;;;;4998093;28;20410;-88
2021/06/27 05:49:30;;;;;;;7.05;5.63;;;;;;;;;;4996609;28;20415;-88
2021/06/27 05:51:57;;;;;;;6.40;5.70;;;;;;;;;;4988441;28;20936;-88
2021/06/27 05:54:24;;;;;;;8.50;5.75;;;;;;;;;;4994006;28;20408;-88
2021/06/27 05:56:50;;;;;;;6.65;5.20;;;;;;;;;;4981331;28;20438;-90
2021/06/27 05:59:19;;;;;;;5.95;5.40;;;;;;;;;;4993149;28;20403;-88
2021/06/27 06:01:46;;;;;;;6.80;5.43;;;;;;;;;;4992692;28;20441;-88
2021/06/27 06:04:13;;;;;;;6.95;5.10;;;;;;;;;;4997551;28;20416;-87
2021/06/27 06:06:40;;;;;;;7.75;4.97;;;;;;;;;;4981673;28;20414;-88
2021/06/27 06:09:07;;;;;;;5.95;5.00;;;;;;;;;;4985644;28;20409;-88
2021/06/27 06:11:33;;;;;;;5.18;4.60;;;;;;;;;;4984847;28;20415;-88
2021/06/27 06:14:00;;;;;;;6.47;4.25;;;;;;;;;;4992675;28;20488;-88
2021/06/27 06:16:29;;;;;;;6.40;4.55;;;;;;;;;;4996610;28;20406;-88
2021/06/27 06:18:56;;;;;;;5.53;4.70;;;;;;;;;;4996272;28;20417;-86
2021/06/27 06:21:23;;;;;;;5.40;4.10;;;;;;;;;;4994108;28;20592;-88
2021/06/27 06:23:49;;;;;;;4.35;3.95;;;;;;;;;;5013454;22;20430;-84
2021/06/27 06:26:17;;;;;;;4.50;3.70;;;;;;;;;;4998468;28;20769;-83
2021/06/27 06:28:43;;;;;;;6.18;3.53;;;;;;;;;;5000397;28;20395;-85
2021/06/27 06:31:11;;;;;;;4.20;3.80;;;;;;;;;;5000703;28;20403;-85
2021/06/27 06:33:40;;;;;;;5.60;3.40;;;;;;;;;;4990495;28;20411;-85
2021/06/27 06:36:07;;;;;;;4.78;3.50;;;;;;;;;;4989490;28;20849;-84
2021/06/27 06:38:34;;;;;;;4.05;2.80;;;;;;;;;;4988853;28;20409;-85
2021/06/27 06:41:02;;;;;;;4.47;3.05;;;;;;;;;;4993165;28;20425;-83
2021/06/27 06:43:28;;;;;;;3.88;2.80;;;;;;;;;;4989795;28;20418;-84
2021/06/27 06:45:55;;;;;;;5.18;2.80;;;;;;;;;;4989054;28;20407;-85
2021/06/27 06:48:22;;;;;;;3.58;3.00;;;;;;;;;;4995291;28;20403;-86
2021/06/27 06:50:51;;;;;;;4.87;2.87;;;;;;;;;;4996802;28;20421;-85
2021/06/27 06:53:18;;;;;;;5.90;2.90;;;;;;;;;;4998440;28;20482;-85
2021/06/27 06:55:45;;;;;;;3.38;2.20;;;;;;;;;;4996858;28;20405;-84
2021/06/27 06:58:12;;;;;;;2.15;1.98;;;;;;;;;;4991420;28;20409;-85
2021/06/27 07:00:39;;;;;;;3.63;2.00;;;;;;;;;;4988788;28;20425;-84
2021/06/27 07:03:06;;;;;;;2.28;1.98;;;;;;;;;;4989508;28;20409;-83
2021/06/27 07:05:33;;;;;;;3.58;2.10;;;;;;;;;;4989352;28;20436;-85
2021/06/27 07:08:01;;;;;;;10.82;2.65;;;;;;;;;;4989823;28;21079;-84
2021/06/27 07:10:28;;;;;;;2.22;1.98;;;;;;;;;;4992857;28;20410;-84
2021/06/27 07:12:55;;;;;;;3.20;2.20;;;;;;;;;;4998411;28;20407;-84
2021/06/27 07:15:23;;;;;;;2.40;2.13;;;;;;;;;;4996334;28;20425;-83
2021/06/27 07:17:50;;;;;;;4.60;2.40;;;;;;;;;;4994524;28;20642;-84
2021/06/27 07:20:17;;;;;;;2.60;2.00;;;;;;;;;;4986820;28;20450;-85
2021/06/27 07:22:44;;;;;;;3.00;2.17;;;;;;;;;;4992609;28;20427;-83
2021/06/27 07:25:14;;;;;;;2.97;2.47;;;;;;;;;;4996511;28;20413;-85
2021/06/27 07:27:41;;;;;;;2.83;2.30;;;;;;;;;;4993723;28;20400;-85
2021/06/27 07:30:09;;;;;;;4.10;2.40;;;;;;;;;;4995137;28;20963;-85
2021/06/27 07:32:36;;;;;;;4.90;2.40;;;;;;;;;;4990205;28;20826;-85
2021/06/27 07:35:04;;;;;;;3.00;2.45;;;;;;;;;;4999577;28;20414;-85
2021/06/27 07:37:31;;;;;;;3.70;2.20;;;;;;;;;;4995074;28;20404;-86
2021/06/27 07:39:58;;;;;;;3.43;2.30;;;;;;;;;;4997154;28;20418;-84
2021/06/27 07:42:26;;;;;;;4.40;2.55;;;;;;;;;;4988757;28;20456;-85
2021/06/27 07:44:53;;;;;;;2.33;2.13;;;;;;;;;;4994058;28;20503;-84
2021/06/27 07:47:20;;;;;;;3.80;2.45;;;;;;;;;;4997996;28;20399;-84
2021/06/27 07:49:47;;;;;;;3.70;2.45;;;;;;;;;;4998816;28;20413;-84
2021/06/27 07:52:14;;;;;;;4.30;2.50;;;;;;;;;;4999025;28;20400;-85
2021/06/27 07:54:41;;;;;;;3.47;2.50;;;;;;;;;;4998097;28;20405;-85
2021/06/27 07:57:09;;;;;;;5.50;2.60;;;;;;;;;;4998838;28;20413;-85
2021/06/27 07:59:37;;;;;;;3.00;2.30;;;;;;;;;;4997773;28;20409;-84
2021/06/27 08:02:05;;;;;;;4.10;2.38;;;;;;;;;;4997759;28;20901;-83
2021/06/27 08:04:32;;;;;;;2.42;2.13;;;;;;;;;;4997941;28;20414;-84
2021/06/27 08:06:59;;;;;;;3.55;2.30;;;;;;;;;;4997999;28;20494;-85
2021/06/27 08:09:26;;;;;;;3.70;2.10;;;;;;;;;;4998520;28;21386;-85
2021/06/27 08:11:53;;;;;;;5.27;2.10;;;;;;;;;;4996919;28;20502;-84
2021/06/27 08:14:20;;;;;;;5.27;2.27;;;;;;;;;;4998393;28;20402;-84
2021/06/27 08:16:48;;;;;;;2.55;1.80;;;;;;;;;;4998364;28;20404;-85
2021/06/27 08:19:15;;;;;;;2.92;1.80;;;;;;;;;;4993203;28;20433;-84
2021/06/27 08:21:42;;;;;;;3.22;1.75;;;;;;;;;;4991905;28;20763;-85
2021/06/27 08:24:09;;;;;;;5.30;2.00;;;;;;;;;;4992070;28;20500;-85
2021/06/27 08:26:36;;;;;;;4.47;1.92;;;;;;;;;;4991285;28;20415;-84
2021/06/27 08:29:03;;;;;;;3.15;2.20;;;;;;;;;;4991626;28;20400;-84
2021/06/27 08:31:30;;;;;;;3.33;2.00;;;;;;;;;;4991199;28;20404;-83
2021/06/27 08:33:58;;;;;;;2.13;1.80;;;;;;;;;;4990896;28;20401;-85
2021/06/27 08:36:27;;;;;;;4.20;1.95;;;;;;;;;;4999604;28;20410;-85
2021/06/27 08:38:54;;;;;;;2.10;1.90;;;;;;;;;;4996897;28;20509;-85
2021/06/27 08:41:21;;;;;;;2.80;1.80;;;;;;;;;;4998582;28;20430;-85
2021/06/27 08:43:48;;;;;;;3.17;1.97;;;;;;;;;;4998031;28;20877;-84
2021/06/27 08:46:15;;;;;;;7.40;2.00;;;;;;;;;;4992891;28;20414;-85
2021/06/27 08:48:44;;;;;;;3.85;1.95;;;;;;;;;;4990793;28;20403;-85
2021/06/27 08:51:13;;;;;;;2.50;1.60;;;;;;;;;;4991651;28;20399;-85
2021/06/27 08:53:42;;;;;;;4.07;1.73;;;;;;;;;;4991126;28;20411;-85
2021/06/27 08:56:10;;;;;;;1.92;1.75;;;;;;;;;;4991329;28;20419;-84
2021/06/27 08:58:39;;;;;;;2.55;1.60;;;;;;;;;;4990425;28;20408;-84
2021/06/27 09:01:08;;;;;;;3.25;1.80;;;;;;;;;;4991212;28;20417;-85
2021/06/27 09:03:35;;;;;;;2.30;1.83;;;;;;;;;;4991003;28;20419;-85
2021/06/27 09:06:02;;;;;;;2.87;1.90;;;;;;;;;;4991416;28;20411;-85
2021/06/27 09:08:31;;;;;;;3.00;1.50;;;;;;;;;;4991746;28;20544;-85
2021/06/27 09:11:12;;;;;;;3.60;1.90;;;;;;;;;;4991777;28;20404;-84
2021/06/27 09:13:42;;;;;;;3.53;1.70;;;;;;;;;;4997138;28;21397;-85
2021/06/27 09:16:21;;;;;;;4.45;2.00;;;;;;;;;;4996227;28;20428;-85
2021/06/27 09:18:49;;;;;;;1.98;1.77;;;;;;;;;;4998572;28;20515;-84
2021/06/27 09:21:16;;;;;;;2.45;1.58;;;;;;;;;;4995137;28;20403;-84
2021/06/27 09:23:47;;;;;;;2.50;1.80;;;;;;;;;;4997862;28;20430;-84
2021/06/27 09:26:25;;;;;;;3.00;1.88;;;;;;;;;;5001451;28;20411;-85
2021/06/27 09:28:52;;;;;;;2.55;1.92;;;;;;;;;;5001521;28;20400;-84
2021/06/27 09:31:37;;;;;;;2.53;1.70;;;;;;;;;;5002279;28;20790;-85
2021/06/27 09:34:06;;;;;;;3.47;1.98;;;;;;;;;;4998016;28;20411;-84
2021/06/27 09:36:33;;;;;;;3.00;1.80;;;;;;;;;;5000474;28;20406;-85
2021/06/27 09:39:10;;;;;;;4.13;1.90;;;;;;;;;;4997604;28;20497;-85
2021/06/27 09:41:46;;;;;;;3.63;2.08;;;;;;;;;;4991973;28;20421;-84
2021/06/27 09:44:16;;;;;;;3.05;1.83;;;;;;;;;;4992392;28;20407;-85
2021/06/27 09:46:46;;;;;;;3.85;1.88;;;;;;;;;;4997273;28;20493;-85
2021/06/27 09:49:15;;;;;;;4.15;2.00;;;;;;;;;;4998043;28;20411;-85
2021/06/27 09:51:49;;;;;;;3.55;2.50;;;;;;;;;;4994720;28;20485;-85
2021/06/27 09:54:19;;;;;;;3.10;2.40;;;;;;;;;;4998186;28;20409;-85
2021/06/27 09:56:46;;;;;;;3.80;2.20;;;;;;;;;;5000013;28;20422;-85
2021/06/27 09:59:15;;;;;;;4.53;2.50;;;;;;;;;;4999632;28;20401;-83
2021/06/27 10:01:43;;;;;;;4.33;2.53;;;;;;;;;;4999490;28;20426;-85
2021/06/27 10:04:11;;;;;;;2.92;2.22;;;;;;;;;;4999501;28;20463;-85
2021/06/27 10:06:49;;;;;;;3.97;2.25;;;;;;;;;;5001954;28;20415;-84
2021/06/27 10:09:20;;;;;;;3.10;2.20;;;;;;;;;;4993894;28;20850;-86
2021/06/27 10:12:01;;;;;;;4.40;2.20;;;;;;;;;;4995025;28;20415;-86
2021/06/27 10:14:31;;;;;;;4.28;2.08;;;;;;;;;;4995138;28;20486;-86
2021/06/27 10:16:59;;;;;;;4.78;2.08;;;;;;;;;;4995247;28;20548;-86
2021/06/27 10:19:27;;;;;;;3.27;2.03;;;;;;;;;;4994240;28;20427;-86
2021/06/27 10:21:55;;;;;;;4.82;2.08;;;;;;;;;;4995110;28;20488;-86
2021/06/27 10:24:24;;;;;;;4.10;1.98;;;;;;;;;;4995451;28;20506;-86
2021/06/27 10:26:51;;;;;;;4.38;2.00;;;;;;;;;;4994856;28;20419;-86
2021/06/27 10:29:19;;;;;;;4.13;1.90;;;;;;;;;;4994951;28;20405;-86
2021/06/27 10:31:46;;;;;;;5.28;2.15;;;;;;;;;;4991650;28;20481;-84
2021/06/27 10:34:13;;;;;;;4.38;1.80;;;;;;;;;;4990637;28;20492;-86
2021/06/27 10:36:44;;;;;;;5.93;1.90;;;;;;;;;;4990651;28;20406;-86
2021/06/27 10:39:12;;;;;;;4.47;1.90;;;;;;;;;;4990962;28;20407;-85
2021/06/27 10:41:54;;;;;;;5.05;2.10;;;;;;;;;;4991031;28;20415;-86
2021/06/27 10:44:23;;;;;;;2.75;1.77;;;;;;;;;;4992280;28;20405;-86
2021/06/27 10:46:51;;;;;;;3.85;1.90;;;;;;;;;;4989444;28;20419;-86
2021/06/27 10:49:52;;;;;;;4.87;1.93;;;;;;;;;;4990243;28;20751;-86
2021/06/27 10:52:21;;;;;;;2.53;1.90;;;;;;;;;;4991837;28;20458;-86
2021/06/27 10:55:22;;;;;;;3.67;2.00;;;;;;;;;;4990091;28;20443;-86
2021/06/27 10:57:59;;;;;;;5.45;1.95;;;;;;;;;;4991327;28;20407;-86
2021/06/27 11:00:27;;;;;;;2.55;1.80;;;;;;;;;;4994715;28;20407;-86
2021/06/27 11:02:54;;;;;;;3.10;1.67;;;;;;;;;;4994379;28;20966;-86
2021/06/27 11:05:47;;;;;;;4.70;1.90;;;;;;;;;;4994320;28;20470;-86
2021/06/27 11:08:32;;;;;;;6.43;2.30;;;;;;;;;;4991742;28;20411;-87
2021/06/27 11:11:02;;;;;;;3.47;1.85;;;;;;;;;;4994503;28;20477;-87
2021/06/27 11:13:31;;;;;;;4.05;1.90;;;;;;;;;;4994028;28;20414;-86
2021/06/27 11:16:09;;;;;;;2.22;1.75;;;;;;;;;;4993605;28;20406;-87
2021/06/27 11:18:38;;;;;;;5.15;1.95;;;;;;;;;;4993748;28;20415;-87
2021/06/27 11:21:14;;;;;;;3.00;1.58;;;;;;;;;;4995991;28;20407;-86
2021/06/27 11:23:59;;;;;;;4.30;1.50;;;;;;;;;;4996614;28;20436;-86
2021/06/27 11:26:45;;;;;;;3.30;1.80;;;;;;;;;;4996867;28;20911;-86
2021/06/27 11:29:44;;;;;;;2.05;1.80;;;;;;;;;;4998657;28;20507;-86
2021/06/27 11:32:50;;;;;;;3.85;1.63;;;;;;;;;;4996733;28;20844;-86
2021/06/27 11:35:48;;;;;;;6.28;1.77;;;;;;;;;;4995744;28;20410;-86
2021/06/27 11:38:38;;;;;;;2.95;1.67;;;;;;;;;;4963098;28;20412;-86
2021/06/27 11:41:06;;;;;;;4.70;1.67;;;;;;;;;;4992975;28;20408;-86
2021/06/27 11:44:00;;;;;;;5.00;2.00;;;;;;;;;;4994471;28;20432;-86
2021/06/27 11:46:31;;;;;;;4.50;2.10;;;;;;;;;;4997447;28;20415;-86
2021/06/27 11:48:59;;;;;;;3.15;1.75;;;;;;;;;;4996814;28;20399;-87
2021/06/27 11:51:42;;;;;;;4.88;1.70;;;;;;;;;;4997524;28;20412;-86
2021/06/27 11:54:12;;;;;;;3.70;1.55;;;;;;;;;;4996647;28;20424;-86
2021/06/27 11:56:54;;;;;;;4.78;1.80;;;;;;;;;;4996107;28;20408;-86
2021/06/27 11:59:23;;;;;;;2.65;1.80;;;;;;;;;;4996024;28;20453;-86
2021/06/27 12:02:12;;;;;;;4.85;1.73;;;;;;;;;;4993555;28;20403;-86
2021/06/27 12:04:41;;;;;;;4.78;1.60;;;;;;;;;;4997148;28;20499;-86
2021/06/27 12:07:28;;;;;;;3.35;1.70;;;;;;;;;;4996165;28;20409;-86
2021/06/27 12:09:58;;;;;;;2.25;1.50;;;;;;;;;;4995578;28;20756;-86
2021/06/27 12:12:42;;;;;;;1.75;1.60;;;;;;;;;;4994445;28;20400;-86
2021/06/27 12:15:25;;;;;;;3.88;1.42;;;;;;;;;;4997133;28;20419;-86
2021/06/27 12:17:59;;;;;;;5.45;1.55;;;;;;;;;;4995722;28;20492;-86
2021/06/27 12:20:29;;;;;;;2.30;1.50;;;;;;;;;;4994301;28;20409;-86
2021/06/27 12:22:59;;;;;;;3.88;1.67;;;;;;;;;;4993645;28;20435;-86
2021/06/27 12:25:27;;;;;;;2.95;1.80;;;;;;;;;;4994482;28;20440;-86
2021/06/27 12:27:55;;;;;;;2.30;1.38;;;;;;;;;;4993828;28;20420;-86
2021/06/27 12:30:44;;;;;;;3.63;1.55;;;;;;;;;;4994250;28;20403;-86
2021/06/27 12:33:14;;;;;;;2.30;1.30;;;;;;;;;;4996229;28;20892;-86
2021/06/27 12:35:43;;;;;;;2.25;1.42;;;;;;;;;;4994842;28;20455;-86
2021/06/27 12:38:11;;;;;;;4.68;1.52;;;;;;;;;;4995108;28;20804;-86
2021/06/27 12:40:41;;;;;;;6.33;1.93;;;;;;;;;;4995006;28;20403;-87
2021/06/27 12:43:23;;;;;;;2.00;1.25;;;;;;;;;;4995403;28;20477;-87
2021/06/27 12:46:14;;;;;;;2.30;1.52;;;;;;;;;;4994627;28;20415;-86
2021/06/27 12:48:43;;;;;;;2.72;1.50;;;;;;;;;;4995953;28;20419;-86
2021/06/27 12:51:31;;;;;;;4.68;1.40;;;;;;;;;;4995057;28;20475;-87
2021/06/27 12:54:06;;;;;;;3.03;1.55;;;;;;;;;;4995878;28;20757;-87
2021/06/27 12:56:53;;;;;;;1.67;1.23;;;;;;;;;;4995078;28;20414;-86
2021/06/27 12:59:22;;;;;;;2.28;1.48;;;;;;;;;;4995060;28;20410;-86
2021/06/27 13:01:57;;;;;;;2.17;1.40;;;;;;;;;;4996209;28;20491;-87
2021/06/27 13:04:27;;;;;;;2.30;1.30;;;;;;;;;;5001651;28;20799;-87
2021/06/27 13:06:56;;;;;;;4.30;1.40;;;;;;;;;;5002269;28;20419;-87
2021/06/27 13:09:23;;;;;;;2.40;1.30;;;;;;;;;;5001261;28;20411;-85
2021/06/27 13:12:13;;;;;;;2.38;1.40;;;;;;;;;;5001643;28;20408;-89
2021/06/27 13:14:42;;;;;;;1.93;1.20;;;;;;;;;;5002514;28;20501;-85
2021/06/27 13:17:10;;;;;;;3.00;1.30;;;;;;;;;;5002461;28;20407;-87
2021/06/27 13:19:56;;;;;;;2.40;1.48;;;;;;;;;;5001201;28;20399;-87
2021/06/27 13:22:23;;;;;;;2.70;1.17;;;;;;;;;;5002033;28;20420;-87
2021/06/27 13:25:11;;;;;;;1.73;1.30;;;;;;;;;;4998493;28;20402;-87
2021/06/27 13:27:38;;;;;;;3.28;1.30;;;;;;;;;;4997825;28;20406;-87
2021/06/27 13:30:15;;;;;;;2.93;1.30;;;;;;;;;;4997393;28;20752;-87
2021/06/27 13:32:43;;;;;;;3.13;1.30;;;;;;;;;;4995801;28;20778;-87
2021/06/27 13:35:31;;;;;;;3.08;1.25;;;;;;;;;;5000155;28;20407;-87
2021/06/27 13:38:02;;;;;;;3.50;1.33;;;;;;;;;;4999521;28;20514;-87
2021/06/27 13:40:28;;;;;;;2.50;1.10;;;;;;;;;;5001050;28;20414;-87
2021/06/27 13:42:56;;;;;;;2.30;1.30;;;;;;;;;;4999645;28;20423;-87
2021/06/27 13:45:23;;;;;;;5.15;1.60;;;;;;;;;;4999662;28;20422;-87
2021/06/27 13:47:51;;;;;;;2.55;1.20;;;;;;;;;;5000355;28;20407;-87
2021/06/27 13:50:18;;;;;;;5.35;1.52;;;;;;;;;;5000371;28;20407;-87
2021/06/27 13:52:47;;;;;;;2.00;1.42;;;;;;;;;;4999626;28;20807;-87
2021/06/27 13:55:15;;;;;;;3.80;1.85;;;;;;;;;;4999870;28;20415;-88
2021/06/27 13:57:43;;;;;;;2.40;1.50;;;;;;;;;;4999780;28;20403;-87
2021/06/27 14:00:11;;;;;;;3.53;1.53;;;;;;;;;;5000379;28;20461;-87
2021/06/27 14:02:39;;;;;;;3.55;1.40;;;;;;;;;;5000871;28;20957;-87
2021/06/27 14:05:07;;;;;;;2.08;1.60;;;;;;;;;;5001030;28;20411;-87
2021/06/27 14:07:35;;;;;;;2.15;1.42;;;;;;;;;;4996878;28;20418;-87
2021/06/27 14:10:04;;;;;;;2.55;1.40;;;;;;;;;;4998967;28;20410;-87
2021/06/27 14:12:31;;;;;;;2.33;1.52;;;;;;;;;;4998540;28;20551;-86
2021/06/27 14:14:59;;;;;;;2.17;1.52;;;;;;;;;;5000688;28;20438;-87
2021/06/27 14:17:27;;;;;;;3.65;1.50;;;;;;;;;;5001437;28;20430;-88
2021/06/27 14:19:54;;;;;;;1.63;1.52;;;;;;;;;;5000204;28;20492;-86
2021/06/27 14:22:22;;;;;;;4.13;1.23;;;;;;;;;;4999478;28;20407;-87
2021/06/27 14:24:49;;;;;;;1.65;1.55;;;;;;;;;;5000680;28;20425;-87
2021/06/27 14:27:17;;;;;;;3.35;1.50;;;;;;;;;;4993886;28;20404;-87
2021/06/27 14:29:44;;;;;;;1.83;1.30;;;;;;;;;;4991975;28;20421;-87
2021/06/27 14:32:11;;;;;;;3.72;1.40;;;;;;;;;;4992601;28;20397;-87
2021/06/27 14:34:39;;;;;;;2.83;1.55;;;;;;;;;;4995058;28;20419;-85
2021/06/27 14:37:07;;;;;;;2.17;1.50;;;;;;;;;;4998047;28;20429;-87
2021/06/27 14:39:34;;;;;;;1.77;1.50;;;;;;;;;;4989274;28;20425;-86
2021/06/27 14:42:01;;;;;;;2.97;1.67;;;;;;;;;;4996525;28;20407;-86
2021/06/27 14:44:30;;;;;;;2.30;1.40;;;;;;;;;;4995191;28;20906;-87
2021/06/27 14:46:57;;;;;;;2.47;1.40;;;;;;;;;;4992656;28;20408;-87
2021/06/27 14:49:24;;;;;;;2.38;1.60;;;;;;;;;;4995566;28;20840;-86
2021/06/27 14:51:52;;;;;;;2.47;1.50;;;;;;;;;;4993035;28;20425;-86
2021/06/27 14:54:19;;;;;;;3.28;1.60;;;;;;;;;;4995028;28;20485;-86
2021/06/27 14:56:47;;;;;;;4.18;1.58;;;;;;;;;;4998255;28;20417;-87